Time;durP1;ratioP1;P1;durP2;ratioP2;P2;SDS_P1;SDS_P2;PMS_P1;PMS_P2;Temp;Humidity;BMP_temperature;BMP_pressure;BME280_temperature;BME280_humidity;BME280_pressure;Samples;Min_cycle;Max_cycle;Signal;HPM_P1;HPM_P2
2021/10/11 00:01:57;;;;;;;17.95;8.13;;;;;;;;;;5072276;28;20048;-68
2021/10/11 00:04:25;;;;;;;17.48;7.85;;;;;;;;;;5072012;28;20050;-65
2021/10/11 00:06:54;;;;;;;19.80;8.20;;;;;;;;;;5072110;28;20115;-66
2021/10/11 00:09:22;;;;;;;16.70;7.55;;;;;;;;;;5071232;28;20044;-67
2021/10/11 00:11:52;;;;;;;15.60;7.75;;;;;;;;;;5058315;28;20500;-66
2021/10/11 00:14:20;;;;;;;15.43;7.82;;;;;;;;;;5071283;28;20048;-66
2021/10/11 00:16:48;;;;;;;18.77;8.07;;;;;;;;;;5071764;28;20072;-66
2021/10/11 00:19:17;;;;;;;16.48;7.20;;;;;;;;;;5071440;28;20127;-66
2021/10/11 00:21:46;;;;;;;16.77;7.10;;;;;;;;;;5072274;28;20083;-66
2021/10/11 00:24:14;;;;;;;15.95;7.35;;;;;;;;;;5069811;28;20064;-66
2021/10/11 00:26:43;;;;;;;17.90;7.60;;;;;;;;;;5058807;28;20072;-69
2021/10/11 00:29:12;;;;;;;17.92;7.35;;;;;;;;;;5056092;28;20052;-68
2021/10/11 00:31:40;;;;;;;16.17;6.63;;;;;;;;;;5064373;28;20044;-66
2021/10/11 00:34:09;;;;;;;18.55;7.55;;;;;;;;;;5081290;28;20139;-67
2021/10/11 00:36:37;;;;;;;15.80;6.88;;;;;;;;;;5086254;28;20506;-66
2021/10/11 00:39:05;;;;;;;18.02;7.68;;;;;;;;;;5063414;28;20040;-66
2021/10/11 00:41:34;;;;;;;18.67;6.85;;;;;;;;;;5061911;28;20075;-68
2021/10/11 00:44:02;;;;;;;21.23;7.80;;;;;;;;;;5060531;28;20052;-66
2021/10/11 00:46:32;;;;;;;19.55;7.88;;;;;;;;;;5078333;28;20119;-68
2021/10/11 00:49:00;;;;;;;17.52;7.53;;;;;;;;;;5061088;28;20085;-66
2021/10/11 00:51:28;;;;;;;20.10;7.47;;;;;;;;;;5066765;28;20123;-67
2021/10/11 00:53:57;;;;;;;17.08;7.65;;;;;;;;;;5068200;28;20079;-68
2021/10/11 00:56:25;;;;;;;19.70;8.63;;;;;;;;;;5073638;28;20080;-67
2021/10/11 00:58:53;;;;;;;19.08;7.72;;;;;;;;;;5075526;28;20049;-67
2021/10/11 01:01:22;;;;;;;17.40;7.90;;;;;;;;;;5075998;28;20560;-67
2021/10/11 01:03:51;;;;;;;18.95;7.18;;;;;;;;;;5066278;28;20088;-69
2021/10/11 01:06:20;;;;;;;17.27;7.10;;;;;;;;;;5062717;28;20132;-65
2021/10/11 01:08:48;;;;;;;16.45;7.45;;;;;;;;;;5074927;28;20558;-67
2021/10/11 01:11:17;;;;;;;19.13;7.55;;;;;;;;;;5077175;28;20127;-65
2021/10/11 01:13:45;;;;;;;15.60;6.85;;;;;;;;;;5084857;28;20131;-65
2021/10/11 01:16:13;;;;;;;15.38;7.10;;;;;;;;;;5075207;28;20474;-66
2021/10/11 01:18:41;;;;;;;16.08;7.05;;;;;;;;;;5067812;28;20136;-65
2021/10/11 01:21:11;;;;;;;14.35;7.43;;;;;;;;;;5076336;28;20119;-66
2021/10/11 01:23:39;;;;;;;17.58;7.65;;;;;;;;;;5064440;28;20048;-66
2021/10/11 01:26:08;;;;;;;16.23;7.25;;;;;;;;;;5070766;28;20082;-66
2021/10/11 01:28:36;;;;;;;16.90;7.10;;;;;;;;;;5075985;28;21674;-66
2021/10/11 01:31:04;;;;;;;15.52;7.15;;;;;;;;;;5077351;28;20056;-66
2021/10/11 01:33:32;;;;;;;16.40;7.68;;;;;;;;;;5071686;28;20060;-66
2021/10/11 01:36:01;;;;;;;16.73;7.45;;;;;;;;;;5070882;28;20511;-66
2021/10/11 01:38:30;;;;;;;18.90;8.18;;;;;;;;;;5082825;28;20492;-68
2021/10/11 01:40:59;;;;;;;15.77;6.60;;;;;;;;;;5082205;28;20561;-68
2021/10/11 01:43:27;;;;;;;17.73;7.28;;;;;;;;;;5070382;28;20127;-65
2021/10/11 01:45:56;;;;;;;15.23;6.90;;;;;;;;;;5072318;28;20443;-66
2021/10/11 01:48:24;;;;;;;17.25;7.07;;;;;;;;;;5080228;28;20588;-66
2021/10/11 01:50:52;;;;;;;19.13;7.85;;;;;;;;;;5070626;28;20504;-66
2021/10/11 01:53:20;;;;;;;16.92;7.03;;;;;;;;;;5069792;28;20051;-67
2021/10/11 01:55:50;;;;;;;18.45;7.30;;;;;;;;;;5090599;28;20044;-66
2021/10/11 01:58:18;;;;;;;18.17;7.85;;;;;;;;;;5076711;28;20040;-66
2021/10/11 02:00:47;;;;;;;16.10;7.28;;;;;;;;;;5070711;28;20170;-66
2021/10/11 02:03:15;;;;;;;16.10;7.10;;;;;;;;;;5069269;28;20052;-68
2021/10/11 02:05:43;;;;;;;18.45;7.68;;;;;;;;;;5070170;28;20075;-68
2021/10/11 02:08:12;;;;;;;17.30;7.20;;;;;;;;;;5069143;28;20048;-66
2021/10/11 02:10:40;;;;;;;18.00;7.22;;;;;;;;;;5054177;28;20048;-65
2021/10/11 02:13:10;;;;;;;14.45;6.82;;;;;;;;;;5056112;28;20041;-67
2021/10/11 02:15:38;;;;;;;15.07;6.80;;;;;;;;;;5059358;28;20120;-66
2021/10/11 02:18:06;;;;;;;15.85;7.13;;;;;;;;;;5054787;28;20084;-65
2021/10/11 02:20:36;;;;;;;14.05;6.78;;;;;;;;;;5064025;28;20088;-66
2021/10/11 02:23:04;;;;;;;15.85;7.57;;;;;;;;;;5057287;28;20076;-66
2021/10/11 02:25:32;;;;;;;14.25;7.03;;;;;;;;;;5065647;28;20518;-66
2021/10/11 02:28:01;;;;;;;17.50;6.78;;;;;;;;;;5062544;28;20047;-66
2021/10/11 02:30:30;;;;;;;16.77;7.45;;;;;;;;;;5077760;28;20136;-67
2021/10/11 02:32:59;;;;;;;17.08;7.13;;;;;;;;;;5069816;28;20051;-66
2021/10/11 02:35:27;;;;;;;16.42;6.95;;;;;;;;;;5077974;28;20072;-65
2021/10/11 02:37:55;;;;;;;13.55;6.60;;;;;;;;;;5072643;28;20044;-66
2021/10/11 02:40:24;;;;;;;14.95;7.05;;;;;;;;;;5066368;28;20049;-68
2021/10/11 02:42:52;;;;;;;14.85;7.10;;;;;;;;;;5075667;28;20131;-66
2021/10/11 02:45:20;;;;;;;17.15;6.90;;;;;;;;;;5055352;28;20509;-67
2021/10/11 02:47:50;;;;;;;16.92;6.88;;;;;;;;;;5092408;28;20488;-67
2021/10/11 02:50:20;;;;;;;14.18;6.38;;;;;;;;;;5093915;28;20113;-68
2021/10/11 02:52:48;;;;;;;16.13;6.80;;;;;;;;;;5087907;28;20151;-67
2021/10/11 02:55:16;;;;;;;15.38;7.38;;;;;;;;;;5085495;28;20087;-66
2021/10/11 02:57:44;;;;;;;12.63;6.07;;;;;;;;;;5074403;28;20086;-65
2021/10/11 03:00:13;;;;;;;14.48;6.95;;;;;;;;;;5069145;28;20381;-67
2021/10/11 03:02:41;;;;;;;15.55;6.80;;;;;;;;;;5073423;28;20132;-67
2021/10/11 03:05:11;;;;;;;15.20;7.38;;;;;;;;;;5076775;28;20482;-65
2021/10/11 03:07:39;;;;;;;15.43;6.25;;;;;;;;;;5065712;28;20083;-66
2021/10/11 03:10:08;;;;;;;13.63;6.57;;;;;;;;;;5073146;28;20514;-67
2021/10/11 03:12:36;;;;;;;14.77;6.53;;;;;;;;;;5055348;28;20136;-66
2021/10/11 03:15:05;;;;;;;12.95;6.10;;;;;;;;;;5073769;28;20569;-66
2021/10/11 03:17:33;;;;;;;18.20;7.22;;;;;;;;;;5067640;28;20173;-65
2021/10/11 03:20:01;;;;;;;15.73;6.50;;;;;;;;;;5064648;28;20043;-65
2021/10/11 03:22:31;;;;;;;16.92;6.78;;;;;;;;;;5092039;28;20127;-66
2021/10/11 03:24:59;;;;;;;14.18;7.13;;;;;;;;;;5079745;28;20080;-67
2021/10/11 03:27:28;;;;;;;17.17;6.43;;;;;;;;;;5073852;28;20400;-67
2021/10/11 03:29:56;;;;;;;13.23;5.53;;;;;;;;;;5062703;28;20488;-65
2021/10/11 03:32:25;;;;;;;13.57;6.07;;;;;;;;;;5078503;28;20052;-66
2021/10/11 03:34:53;;;;;;;17.20;6.97;;;;;;;;;;5080073;28;20044;-65
2021/10/11 03:37:21;;;;;;;12.98;6.25;;;;;;;;;;5072077;28;20044;-66
2021/10/11 03:39:51;;;;;;;14.38;6.05;;;;;;;;;;5087507;28;20127;-66
2021/10/11 03:42:19;;;;;;;15.00;6.55;;;;;;;;;;5089178;28;20083;-66
2021/10/11 03:44:48;;;;;;;15.38;6.20;;;;;;;;;;5073530;28;20052;-67
2021/10/11 03:47:16;;;;;;;15.68;6.20;;;;;;;;;;5056509;28;20056;-67
2021/10/11 03:49:44;;;;;;;13.50;6.22;;;;;;;;;;5070944;28;20062;-66
2021/10/11 03:52:13;;;;;;;13.05;6.47;;;;;;;;;;5056364;28;20107;-68
2021/10/11 03:54:41;;;;;;;11.88;5.93;;;;;;;;;;5061379;28;20167;-65
2021/10/11 03:57:11;;;;;;;11.90;6.18;;;;;;;;;;5072517;28;20048;-66
2021/10/11 03:59:39;;;;;;;14.70;5.88;;;;;;;;;;5058218;28;20049;-66
2021/10/11 04:02:07;;;;;;;12.25;6.22;;;;;;;;;;5051036;28;20160;-65
2021/10/11 04:04:36;;;;;;;13.35;6.43;;;;;;;;;;5054845;28;20109;-65
2021/10/11 04:07:07;;;;;;;10.35;5.05;;;;;;;;;;5052663;28;20540;-66
2021/10/11 04:09:37;;;;;;;15.85;7.25;;;;;;;;;;5053134;28;20494;-66
2021/10/11 04:12:16;;;;;;;17.17;6.30;;;;;;;;;;5055952;28;21121;-67
2021/10/11 04:14:46;;;;;;;11.65;5.78;;;;;;;;;;5052138;28;20136;-65
2021/10/11 04:17:14;;;;;;;13.20;6.22;;;;;;;;;;5068425;28;20055;-65
2021/10/11 04:19:45;;;;;;;13.70;6.25;;;;;;;;;;5058963;28;20040;-67
2021/10/11 04:22:13;;;;;;;15.43;6.35;;;;;;;;;;5045781;28;20499;-69
2021/10/11 04:24:42;;;;;;;15.73;5.97;;;;;;;;;;4988463;28;20447;-68
2021/10/11 04:27:10;;;;;;;15.00;6.35;;;;;;;;;;333345;28;10022867;-67
2021/10/11 04:29:38;;;;;;;14.55;5.78;;;;;;;;;;5042572;28;20061;-66
2021/10/11 04:32:09;;;;;;;13.65;6.70;;;;;;;;;;5048688;28;20401;-65
2021/10/11 04:34:37;;;;;;;16.08;6.32;;;;;;;;;;5053669;28;20127;-65
2021/10/11 04:37:05;;;;;;;14.25;5.85;;;;;;;;;;5052837;28;20067;-66
2021/10/11 04:39:34;;;;;;;12.45;5.32;;;;;;;;;;5055622;28;20080;-66
2021/10/11 04:42:02;;;;;;;13.90;6.13;;;;;;;;;;5038689;28;20509;-67
2021/10/11 04:44:30;;;;;;;12.88;5.85;;;;;;;;;;5064398;28;20047;-65
2021/10/11 04:46:58;;;;;;;13.95;6.05;;;;;;;;;;5084663;28;20470;-67
2021/10/11 04:49:28;;;;;;;11.45;5.70;;;;;;;;;;5079134;28;20119;-65
2021/10/11 04:51:56;;;;;;;16.55;5.88;;;;;;;;;;5079535;28;20146;-66
2021/10/11 04:54:24;;;;;;;12.68;5.78;;;;;;;;;;5071122;28;20072;-68
2021/10/11 04:56:53;;;;;;;14.73;6.03;;;;;;;;;;5078409;28;20091;-66
2021/10/11 04:59:21;;;;;;;13.27;5.38;;;;;;;;;;5062306;28;20156;-66
2021/10/11 05:01:49;;;;;;;15.75;6.10;;;;;;;;;;5066619;28;20575;-69
2021/10/11 05:04:18;;;;;;;12.05;5.38;;;;;;;;;;5079611;28;20052;-66
2021/10/11 05:06:47;;;;;;;11.40;5.03;;;;;;;;;;5066368;28;20086;-65
2021/10/11 05:09:15;;;;;;;13.77;5.45;;;;;;;;;;5063957;28;20492;-66
2021/10/11 05:11:44;;;;;;;9.55;5.20;;;;;;;;;;5068598;28;20083;-68
2021/10/11 05:14:12;;;;;;;13.05;5.75;;;;;;;;;;5064925;28;20488;-68
2021/10/11 05:16:40;;;;;;;12.52;5.88;;;;;;;;;;5064469;28;20131;-66
2021/10/11 05:19:10;;;;;;;11.27;5.32;;;;;;;;;;5065805;28;20131;-67
2021/10/11 05:21:38;;;;;;;12.40;5.28;;;;;;;;;;5067742;28;20044;-67
2021/10/11 05:24:08;;;;;;;14.00;5.80;;;;;;;;;;5062745;28;20144;-67
2021/10/11 05:26:36;;;;;;;11.95;5.75;;;;;;;;;;5053625;28;20160;-67
2021/10/11 05:29:04;;;;;;;13.88;5.88;;;;;;;;;;5048547;28;20580;-66
2021/10/11 05:31:33;;;;;;;14.13;5.38;;;;;;;;;;5053042;28;20171;-66
2021/10/11 05:34:01;;;;;;;13.25;5.65;;;;;;;;;;5054640;28;20080;-67
2021/10/11 05:36:29;;;;;;;11.80;5.50;;;;;;;;;;5044830;28;20408;-67
2021/10/11 05:38:58;;;;;;;10.68;5.30;;;;;;;;;;5065046;28;20049;-66
2021/10/11 05:41:27;;;;;;;12.75;5.65;;;;;;;;;;5068335;28;20044;-69
2021/10/11 05:43:56;;;;;;;14.23;5.75;;;;;;;;;;5064045;28;20077;-66
2021/10/11 05:46:24;;;;;;;12.55;5.85;;;;;;;;;;5064845;28;20132;-66
2021/10/11 05:49:10;;;;;;;10.75;4.43;;;;;;;;;;5067696;28;20119;-66
2021/10/11 05:51:38;;;;;;;11.35;4.72;;;;;;;;;;5061536;28;20086;-67
2021/10/11 05:54:06;;;;;;;12.80;5.63;;;;;;;;;;5068649;28;20150;-65
2021/10/11 05:56:36;;;;;;;10.77;5.35;;;;;;;;;;5067572;28;20151;-68
2021/10/11 05:59:04;;;;;;;9.00;4.80;;;;;;;;;;5068421;28;20072;-66
2021/10/11 06:01:33;;;;;;;10.50;4.82;;;;;;;;;;5067482;28;20317;-65
2021/10/11 06:04:01;;;;;;;12.05;5.10;;;;;;;;;;5066436;28;20135;-66
2021/10/11 06:06:29;;;;;;;11.85;4.60;;;;;;;;;;5065962;28;20147;-67
2021/10/11 06:08:58;;;;;;;12.32;5.28;;;;;;;;;;5054232;28;20091;-66
2021/10/11 06:11:26;;;;;;;10.25;5.07;;;;;;;;;;5067942;28;20084;-65
2021/10/11 06:13:56;;;;;;;9.25;4.85;;;;;;;;;;5064578;28;20102;-68
2021/10/11 06:16:24;;;;;;;11.45;5.40;;;;;;;;;;5074136;28;20045;-66
2021/10/11 06:18:52;;;;;;;12.20;5.00;;;;;;;;;;5062195;28;20051;-65
2021/10/11 06:21:20;;;;;;;10.32;4.88;;;;;;;;;;5064552;28;20127;-69
2021/10/11 06:23:51;;;;;;;10.90;5.60;;;;;;;;;;5061082;28;20076;-66
2021/10/11 06:26:19;;;;;;;12.25;5.13;;;;;;;;;;5058480;28;20059;-66
2021/10/11 06:28:48;;;;;;;11.27;4.82;;;;;;;;;;5056506;28;21615;-66
2021/10/11 06:31:18;;;;;;;13.07;5.10;;;;;;;;;;5065343;28;20052;-66
2021/10/11 06:33:46;;;;;;;9.75;4.45;;;;;;;;;;5063637;28;20092;-68
2021/10/11 06:36:15;;;;;;;10.55;5.18;;;;;;;;;;5067004;28;20098;-66
2021/10/11 06:38:43;;;;;;;10.93;4.60;;;;;;;;;;5064279;28;20052;-69
2021/10/11 06:41:12;;;;;;;10.68;4.93;;;;;;;;;;5057484;28;20887;-71
2021/10/11 06:43:40;;;;;;;10.13;4.82;;;;;;;;;;5064779;28;20048;-67
2021/10/11 06:46:09;;;;;;;10.90;4.85;;;;;;;;;;5066003;28;20111;-67
2021/10/11 06:48:39;;;;;;;11.18;5.38;;;;;;;;;;5064019;28;20056;-66
2021/10/11 06:51:07;;;;;;;7.00;3.45;;;;;;;;;;5065177;28;20455;-69
2021/10/11 06:53:36;;;;;;;11.43;5.07;;;;;;;;;;5056702;28;20091;-70
2021/10/11 06:56:05;;;;;;;9.55;4.95;;;;;;;;;;5065754;28;20555;-66
2021/10/11 06:58:33;;;;;;;8.55;4.85;;;;;;;;;;5058145;28;20077;-66
2021/10/11 07:01:02;;;;;;;7.82;4.57;;;;;;;;;;5062957;28;20045;-67
2021/10/11 07:03:31;;;;;;;9.07;5.20;;;;;;;;;;5063661;28;20101;-68
2021/10/11 07:06:05;;;;;;;12.57;5.35;;;;;;;;;;5068506;28;20040;-67
2021/10/11 07:08:34;;;;;;;;;;;;;;;;;;5085926;28;20056;-66
2021/10/11 07:11:04;;;;;;;8.40;4.05;;;;;;;;;;5061081;28;19925;-65
2021/10/11 07:13:33;;;;;;;10.18;4.57;;;;;;;;;;5051986;28;20593;-66
2021/10/11 07:16:03;;;;;;;12.00;5.35;;;;;;;;;;5064084;28;20110;-67
2021/10/11 07:18:33;;;;;;;11.77;4.90;;;;;;;;;;5064400;28;20463;-66
2021/10/11 07:21:03;;;;;;;13.52;5.15;;;;;;;;;;5065429;28;20075;-65
2021/10/11 07:23:32;;;;;;;10.02;4.97;;;;;;;;;;5066283;28;20094;-67
2021/10/11 07:26:01;;;;;;;10.02;5.60;;;;;;;;;;5066693;28;20070;-69
2021/10/11 07:28:30;;;;;;;9.57;4.55;;;;;;;;;;5064934;28;20119;-68
2021/10/11 07:30:58;;;;;;;14.73;5.97;;;;;;;;;;5069040;28;20060;-72
2021/10/11 07:33:27;;;;;;;11.63;5.47;;;;;;;;;;5064574;28;20131;-71
2021/10/11 07:35:56;;;;;;;11.77;5.55;;;;;;;;;;5064709;28;20048;-68
2021/10/11 07:38:26;;;;;;;10.60;5.40;;;;;;;;;;5055452;28;20048;-66
2021/10/11 07:40:57;;;;;;;14.40;5.82;;;;;;;;;;5068197;28;20696;-65
2021/10/11 07:43:26;;;;;;;10.63;5.30;;;;;;;;;;5051689;28;20101;-65
2021/10/11 07:46:01;;;;;;;11.07;5.35;;;;;;;;;;5055072;28;20134;-66
2021/10/11 07:48:34;;;;;;;11.88;5.55;;;;;;;;;;5059839;28;20046;-68
2021/10/11 07:51:03;;;;;;;12.40;5.68;;;;;;;;;;5062297;28;20508;-68
2021/10/11 07:53:33;;;;;;;11.20;5.15;;;;;;;;;;5064983;28;20076;-65
2021/10/11 07:56:02;;;;;;;14.38;5.97;;;;;;;;;;5064895;28;20055;-69
2021/10/11 07:58:31;;;;;;;13.80;5.53;;;;;;;;;;5064070;28;20044;-65
2021/10/11 08:00:59;;;;;;;9.43;5.53;;;;;;;;;;5064871;28;20051;-65
2021/10/11 08:03:28;;;;;;;12.73;6.43;;;;;;;;;;5058658;28;20063;-68
2021/10/11 08:05:59;;;;;;;12.95;5.82;;;;;;;;;;5067960;28;20041;-65
2021/10/11 08:08:28;;;;;;;15.18;6.20;;;;;;;;;;5066537;28;20049;-68
2021/10/11 08:10:57;;;;;;;18.73;6.80;;;;;;;;;;5061014;28;20048;-65
2021/10/11 08:13:26;;;;;;;13.40;6.60;;;;;;;;;;5058913;28;20050;-68
2021/10/11 08:15:55;;;;;;;16.20;7.75;;;;;;;;;;5058465;28;20051;-66
2021/10/11 08:18:24;;;;;;;14.85;7.35;;;;;;;;;;5068123;28;20131;-68
2021/10/11 08:20:52;;;;;;;15.60;8.10;;;;;;;;;;5066935;28;20052;-67
2021/10/11 08:23:21;;;;;;;19.52;8.20;;;;;;;;;;5064306;28;20093;-67
2021/10/11 08:25:49;;;;;;;19.30;7.72;;;;;;;;;;5064891;28;20534;-66
2021/10/11 08:28:19;;;;;;;17.70;7.78;;;;;;;;;;5059969;28;20053;-67
2021/10/11 08:30:47;;;;;;;16.63;7.70;;;;;;;;;;5063734;28;20444;-67
2021/10/11 08:33:16;;;;;;;15.73;7.63;;;;;;;;;;5061760;28;20527;-68
2021/10/11 08:35:44;;;;;;;17.67;8.05;;;;;;;;;;5064593;28;20044;-66
2021/10/11 08:38:13;;;;;;;21.25;8.95;;;;;;;;;;5068254;28;20056;-65
2021/10/11 08:40:42;;;;;;;23.55;8.75;;;;;;;;;;5065183;28;20140;-64
2021/10/11 08:43:10;;;;;;;22.27;8.00;;;;;;;;;;5064116;28;20098;-63
2021/10/11 08:45:40;;;;;;;19.13;8.30;;;;;;;;;;5065495;28;20126;-64
2021/10/11 08:48:09;;;;;;;17.08;8.20;;;;;;;;;;5068126;28;20127;-63
2021/10/11 08:50:38;;;;;;;20.85;7.80;;;;;;;;;;5067188;28;20065;-66
2021/10/11 08:53:07;;;;;;;20.70;9.52;;;;;;;;;;5066694;28;20041;-65
2021/10/11 08:55:36;;;;;;;18.17;8.82;;;;;;;;;;5064110;28;20037;-65
2021/10/11 08:58:07;;;;;;;17.27;8.43;;;;;;;;;;5062952;28;20483;-63
2021/10/11 09:00:37;;;;;;;19.13;8.82;;;;;;;;;;5065168;28;20072;-64
2021/10/11 09:03:09;;;;;;;16.00;7.53;;;;;;;;;;5071704;28;20141;-64
2021/10/11 09:05:40;;;;;;;18.55;7.45;;;;;;;;;;5064773;28;20056;-64
2021/10/11 09:08:10;;;;;;;13.90;6.97;;;;;;;;;;5069277;28;20215;-65
2021/10/11 09:10:50;;;;;;;17.13;7.40;;;;;;;;;;5066416;28;20072;-64
2021/10/11 09:13:19;;;;;;;19.17;9.07;;;;;;;;;;5057322;28;20132;-65
2021/10/11 09:15:51;;;;;;;18.58;7.60;;;;;;;;;;5059499;28;20048;-65
2021/10/11 09:18:32;;;;;;;22.55;7.88;;;;;;;;;;5069342;28;20127;-65
2021/10/11 09:21:01;;;;;;;19.08;7.85;;;;;;;;;;5061760;28;20049;-65
2021/10/11 09:23:31;;;;;;;17.67;8.02;;;;;;;;;;5056130;28;20136;-65
2021/10/11 09:26:00;;;;;;;17.83;7.65;;;;;;;;;;5067404;28;20067;-66
2021/10/11 09:28:30;;;;;;;16.08;7.90;;;;;;;;;;5073478;28;20121;-65
2021/10/11 09:31:10;;;;;;;19.27;8.13;;;;;;;;;;5067439;28;20052;-65
2021/10/11 09:33:41;;;;;;;16.40;7.18;;;;;;;;;;5056245;28;20053;-65
2021/10/11 09:36:10;;;;;;;14.93;7.07;;;;;;;;;;5064710;28;20064;-65
2021/10/11 09:38:39;;;;;;;18.58;8.65;;;;;;;;;;5069506;28;20121;-66
2021/10/11 09:41:08;;;;;;;15.82;7.57;;;;;;;;;;5068405;28;20417;-65
2021/10/11 09:43:38;;;;;;;19.15;8.85;;;;;;;;;;5069332;28;20061;-65
2021/10/11 09:46:13;;;;;;;18.08;7.45;;;;;;;;;;5066301;28;20080;-65
2021/10/11 09:48:51;;;;;;;15.00;8.07;;;;;;;;;;5060244;28;20048;-67
2021/10/11 09:51:21;;;;;;;22.20;8.75;;;;;;;;;;5059070;28;20055;-65
2021/10/11 09:53:50;;;;;;;16.33;7.28;;;;;;;;;;5056077;28;20052;-65
2021/10/11 09:56:19;;;;;;;24.58;8.23;;;;;;;;;;5064470;28;20049;-65
2021/10/11 09:58:48;;;;;;;16.48;8.02;;;;;;;;;;5063112;28;20492;-66
2021/10/11 10:01:18;;;;;;;22.00;7.78;;;;;;;;;;5064496;28;20045;-64
2021/10/11 10:03:47;;;;;;;16.98;7.75;;;;;;;;;;5061681;28;20512;-65
2021/10/11 10:06:17;;;;;;;19.70;8.68;;;;;;;;;;5058018;28;20060;-66
2021/10/11 10:08:49;;;;;;;16.83;8.85;;;;;;;;;;5065806;28;20068;-66
2021/10/11 10:11:17;;;;;;;14.85;8.40;;;;;;;;;;5065742;28;20047;-65
2021/10/11 10:13:47;;;;;;;14.75;9.15;;;;;;;;;;5066308;28;20459;-65
2021/10/11 10:16:17;;;;;;;16.38;8.57;;;;;;;;;;5059458;28;20048;-65
2021/10/11 10:18:47;;;;;;;17.77;7.53;;;;;;;;;;5063714;28;20421;-64
2021/10/11 10:21:17;;;;;;;19.23;7.53;;;;;;;;;;5069713;28;20499;-65
2021/10/11 10:23:54;;;;;;;14.13;7.45;;;;;;;;;;5058111;28;20144;-66
2021/10/11 10:26:27;;;;;;;19.77;7.88;;;;;;;;;;5061358;28;20090;-65
2021/10/11 10:29:00;;;;;;;15.07;7.60;;;;;;;;;;5067805;28;20610;-65
2021/10/11 10:31:29;;;;;;;20.05;6.90;;;;;;;;;;5057726;28;20126;-65
2021/10/11 10:33:57;;;;;;;17.25;6.50;;;;;;;;;;5063008;28;20048;-65
2021/10/11 10:36:28;;;;;;;13.88;7.28;;;;;;;;;;5059109;28;20048;-66
2021/10/11 10:39:00;;;;;;;14.27;6.60;;;;;;;;;;5059450;28;20477;-65
2021/10/11 10:41:29;;;;;;;12.95;6.75;;;;;;;;;;5053491;28;20045;-65
2021/10/11 10:43:58;;;;;;;19.77;7.15;;;;;;;;;;5059852;28;20051;-66
2021/10/11 10:46:26;;;;;;;14.60;6.72;;;;;;;;;;5067324;28;20049;-65
2021/10/11 10:48:55;;;;;;;15.32;6.28;;;;;;;;;;5056624;28;20435;-65
2021/10/11 10:51:29;;;;;;;12.32;6.28;;;;;;;;;;5068866;28;20131;-66
2021/10/11 10:53:58;;;;;;;13.63;6.88;;;;;;;;;;5065109;28;20512;-65
2021/10/11 10:56:27;;;;;;;10.75;5.70;;;;;;;;;;5066396;28;20128;-65
2021/10/11 10:59:03;;;;;;;14.40;6.60;;;;;;;;;;5064269;28;20780;-65
2021/10/11 11:01:31;;;;;;;13.10;5.60;;;;;;;;;;5064836;28;20520;-65
2021/10/11 11:04:00;;;;;;;10.75;6.05;;;;;;;;;;5071959;28;20037;-69
2021/10/11 11:06:31;;;;;;;13.25;6.63;;;;;;;;;;5064441;28;20178;-63
2021/10/11 11:09:00;;;;;;;13.80;6.28;;;;;;;;;;5063308;28;20459;-70
2021/10/11 11:11:29;;;;;;;13.48;6.53;;;;;;;;;;5061164;28;20076;-66
2021/10/11 11:13:58;;;;;;;12.40;6.40;;;;;;;;;;5070415;28;20068;-64
2021/10/11 11:16:28;;;;;;;13.75;6.43;;;;;;;;;;5061431;28;20047;-64
2021/10/11 11:18:57;;;;;;;10.73;6.10;;;;;;;;;;5052427;28;20565;-67
2021/10/11 11:21:26;;;;;;;11.00;5.95;;;;;;;;;;5067805;28;20118;-65
2021/10/11 11:23:55;;;;;;;10.88;5.22;;;;;;;;;;5062265;28;20049;-63
2021/10/11 11:26:24;;;;;;;9.05;5.25;;;;;;;;;;5061238;28;20045;-64
2021/10/11 11:28:56;;;;;;;10.40;5.40;;;;;;;;;;5063036;28;20053;-64
2021/10/11 11:31:24;;;;;;;14.20;5.47;;;;;;;;;;5064745;28;20140;-63
2021/10/11 11:33:53;;;;;;;10.27;5.30;;;;;;;;;;5065445;28;20048;-64
2021/10/11 11:36:22;;;;;;;11.30;5.10;;;;;;;;;;5060326;28;20052;-64
2021/10/11 11:38:52;;;;;;;10.10;5.53;;;;;;;;;;5056834;28;20455;-69
2021/10/11 11:41:21;;;;;;;11.35;4.70;;;;;;;;;;5064701;28;20393;-66
2021/10/11 11:43:50;;;;;;;8.43;4.82;;;;;;;;;;5054496;28;20107;-68
2021/10/11 11:46:19;;;;;;;11.70;5.00;;;;;;;;;;5070009;28;20095;-65
2021/10/11 11:48:47;;;;;;;11.88;5.22;;;;;;;;;;5068825;28;20102;-65
2021/10/11 11:51:19;;;;;;;12.68;5.38;;;;;;;;;;5063159;28;20496;-65
2021/10/11 11:53:48;;;;;;;9.65;5.00;;;;;;;;;;5059020;28;20120;-64
2021/10/11 11:56:16;;;;;;;9.32;4.57;;;;;;;;;;5065604;28;20567;-65
2021/10/11 11:58:53;;;;;;;10.15;5.07;;;;;;;;;;5068924;28;20058;-66
2021/10/11 12:01:24;;;;;;;10.43;5.22;;;;;;;;;;5064636;28;20041;-64
2021/10/11 12:03:56;;;;;;;;;;;;;;;;;;5060208;28;20120;-64
2021/10/11 12:06:27;;;;;;;10.10;4.57;;;;;;;;;;5068481;28;19950;-65
2021/10/11 12:08:56;;;;;;;11.57;5.30;;;;;;;;;;5058514;28;20048;-64
2021/10/11 12:11:25;;;;;;;10.45;4.75;;;;;;;;;;5055398;28;20057;-64
2021/10/11 12:13:59;;;;;;;9.70;4.82;;;;;;;;;;5059877;28;20052;-64
2021/10/11 12:16:28;;;;;;;8.90;4.30;;;;;;;;;;5067403;28;20102;-65
2021/10/11 12:18:59;;;;;;;8.18;4.88;;;;;;;;;;5056236;28;20044;-64
2021/10/11 12:21:29;;;;;;;12.65;4.82;;;;;;;;;;5066435;28;20519;-65
2021/10/11 12:23:59;;;;;;;10.90;4.90;;;;;;;;;;5067238;28;20040;-64
2021/10/11 12:26:28;;;;;;;9.60;4.13;;;;;;;;;;5069245;28;20041;-64
2021/10/11 12:28:59;;;;;;;11.60;4.47;;;;;;;;;;5071647;28;20068;-63
2021/10/11 12:31:29;;;;;;;11.07;4.30;;;;;;;;;;5067551;28;20462;-64
2021/10/11 12:34:04;;;;;;;8.40;4.70;;;;;;;;;;5068601;28;20057;-63
2021/10/11 12:36:33;;;;;;;10.18;4.50;;;;;;;;;;5061061;28;20055;-67
2021/10/11 12:39:09;;;;;;;10.45;4.65;;;;;;;;;;5059397;28;20404;-65
2021/10/11 12:41:38;;;;;;;8.63;4.43;;;;;;;;;;5066382;28;20106;-64
2021/10/11 12:44:08;;;;;;;7.82;3.92;;;;;;;;;;5067014;28;20458;-67
2021/10/11 12:46:43;;;;;;;8.27;4.10;;;;;;;;;;5051714;28;20132;-66
2021/10/11 12:49:11;;;;;;;;;;;;;;;;;;5054694;28;20052;-66
2021/10/11 12:51:41;;;;;;;9.95;4.57;;;;;;;;;;5056547;28;19924;-64
2021/10/11 12:54:13;;;;;;;8.73;4.35;;;;;;;;;;5068452;28;20060;-65
2021/10/11 12:56:48;;;;;;;7.88;4.20;;;;;;;;;;5061144;28;20172;-66
2021/10/11 12:59:19;;;;;;;9.15;4.68;;;;;;;;;;5069610;28;20044;-64
2021/10/11 13:01:49;;;;;;;10.02;4.75;;;;;;;;;;5066393;28;20179;-68
2021/10/11 13:04:19;;;;;;;11.55;4.80;;;;;;;;;;5069468;28;20182;-65
2021/10/11 13:06:47;;;;;;;8.02;4.70;;;;;;;;;;5070081;28;20080;-67
2021/10/11 13:09:17;;;;;;;8.02;4.07;;;;;;;;;;5057609;28;20037;-65
2021/10/11 13:11:46;;;;;;;13.55;4.35;;;;;;;;;;5055009;28;20053;-67
2021/10/11 13:14:15;;;;;;;10.50;4.55;;;;;;;;;;5056574;28;20109;-67
2021/10/11 13:16:45;;;;;;;7.13;4.15;;;;;;;;;;5063871;28;20051;-63
2021/10/11 13:19:14;;;;;;;8.98;3.72;;;;;;;;;;5062271;28;20064;-67
2021/10/11 13:21:43;;;;;;;8.75;4.15;;;;;;;;;;5064858;28;20079;-66
2021/10/11 13:24:12;;;;;;;7.88;4.30;;;;;;;;;;5069992;28;20045;-67
2021/10/11 13:26:41;;;;;;;13.32;4.40;;;;;;;;;;5064210;28;20060;-64
2021/10/11 13:29:24;;;;;;;7.78;3.72;;;;;;;;;;5065279;28;20151;-65
2021/10/11 14:27:56;;;;;;;8.50;4.60;;;;;;;;;;5054793;28;20041;-66
2021/10/11 14:30:30;;;;;;;7.28;4.10;;;;;;;;;;5057207;28;20056;-65
2021/10/11 15:59:33;;;;;;;9.15;3.67;;;;;;;;;;5059699;28;20044;-65
2021/10/11 16:02:06;;;;;;;10.95;4.25;;;;;;;;;;5067093;28;20053;-65
2021/10/11 16:04:34;;;;;;;8.93;4.10;;;;;;;;;;5071655;28;20277;-68
2021/10/11 16:07:07;;;;;;;6.90;3.67;;;;;;;;;;5073852;28;20087;-67
2021/10/11 16:09:36;;;;;;;8.77;4.10;;;;;;;;;;5061682;28;20284;-66
2021/10/11 16:12:05;;;;;;;8.80;3.85;;;;;;;;;;5069541;28;20183;-64
2021/10/11 16:14:34;;;;;;;10.27;4.00;;;;;;;;;;5059795;28;20475;-65
2021/10/11 16:17:03;;;;;;;8.93;4.32;;;;;;;;;;5060401;28;20485;-67
2021/10/11 16:19:34;;;;;;;12.73;4.03;;;;;;;;;;5064900;28;20076;-67
2021/10/11 16:22:03;;;;;;;6.25;3.78;;;;;;;;;;5066407;28;20052;-67
2021/10/11 16:24:32;;;;;;;8.32;4.40;;;;;;;;;;5058702;28;20131;-67
2021/10/11 16:27:00;;;;;;;11.07;4.28;;;;;;;;;;5064290;28;20131;-64
2021/10/11 16:29:29;;;;;;;8.00;4.20;;;;;;;;;;5057549;28;20111;-64
2021/10/11 16:31:58;;;;;;;9.50;4.05;;;;;;;;;;5051122;28;20117;-64
2021/10/11 16:34:28;;;;;;;9.45;4.20;;;;;;;;;;5064925;28;20044;-68
2021/10/11 16:36:57;;;;;;;6.78;3.67;;;;;;;;;;5056519;28;20053;-64
2021/10/11 16:39:25;;;;;;;8.88;4.28;;;;;;;;;;5066048;28;20048;-66
2021/10/11 16:41:54;;;;;;;8.98;4.38;;;;;;;;;;5061875;28;20048;-66
2021/10/11 16:44:22;;;;;;;9.32;4.00;;;;;;;;;;5059686;28;20095;-65
2021/10/11 16:46:51;;;;;;;7.20;4.10;;;;;;;;;;5054167;28;20304;-66
2021/10/11 16:49:19;;;;;;;5.38;3.50;;;;;;;;;;5060770;28;20102;-68
2021/10/11 16:51:49;;;;;;;10.38;3.97;;;;;;;;;;5048458;28;20053;-69
2021/10/11 16:54:29;;;;;;;9.15;4.20;;;;;;;;;;5046546;28;20488;-67
2021/10/11 16:57:01;;;;;;;7.53;4.22;;;;;;;;;;5062869;28;20052;-70
2021/10/11 16:59:30;;;;;;;8.90;4.18;;;;;;;;;;5061767;28;20129;-69
2021/10/11 17:01:59;;;;;;;8.38;4.13;;;;;;;;;;5057144;28;20049;-68
2021/10/11 17:04:27;;;;;;;11.10;4.47;;;;;;;;;;5052576;28;20053;-67
2021/10/11 17:06:57;;;;;;;11.73;4.65;;;;;;;;;;5062345;28;20110;-68
2021/10/11 17:09:27;;;;;;;9.70;4.60;;;;;;;;;;5050483;28;20056;-66